Millboro, Virginia
Current Conditions -  °F | °C
As of 5:55 PM on Thursday 18 Dec 2014 (Local Time) from KHSP Reporting Station
Overcast Overcast  
Wind Chill: -7°   Ceiling: 7000
Heat Index: -1°   Visibility: 10mi
Dew Point: -6°   Wind: 16mph
Humidity: 69%   Direction: 280°W
Pressure: 29.96"   Gusts: NA
Location:  37.98°N, 79.6°W
Report Text: KHSP 182255Z AUTO 28014KT 10SM OVC070 M01/M06 A2996 RMK AO2 T10101060
Loading
Personal Weather Stations






























Interactive Weather Map New forecast layout! Learn more

10-Day Weather Forecast

Advertisements
Track Severe Weather on mobile